Airfield :
LOGIN :

Register | Disclaimer

   EN    FR    IT 

 










Legend :    VFR   Marginal VFR   IFR   Intensive IFR   Very Intensive IFR
Visi :
Ceiling :
>= 8 km
>= 3000ft
5 to 8 km
1000 to 3000 ft
1500m to 5 km
500 to 1000 ft
800 to 1500m
200 to 500 ft
< 800m
< 200 ft
Symbols :   Thunderstorms  Fog  Heavy snow  Heavy precipitations  Wind > 20 kt
SIGMETs :     Misc.  Thunderstorms  Icing  Turbulence  Mountain Waves  Volcanic Ashes






- Airport Elevation : 74 ft
- IATA code : MRS


LFML - Marseille / Marignane

CURRENT METAR :
  • 160730Z AUTO 29003KT 260V320 9999 FEW040/// BKN092/// ///TCU 09/06 Q1017 BECMG NSC

EXPIRED METARs :
  • 160700Z AUTO VRB02KT 9999 SCT033/// BKN039/// BKN100/// ///CB 08/05 Q1017 BECMG NSC
  • 160630Z AUTO VRB02KT 9999 SCT035 SCT048 OVC100 07/05 Q1017 NOSIG
  • 160600Z AUTO 14005KT 9999 BKN034 BKN041 BKN049 07/04 Q1017 NOSIG
  • 160530Z AUTO 13006KT 9999 BKN034 BKN041 OVC098 06/05 Q1017 NOSIG
  • 160500Z AUTO 15007KT 9999 FEW041 BKN098 BKN130 05/03 Q1017 NOSIG

TAF TAF LFML
Valid from the 16 at 03:00 until the 17 at 09:00 UTC


160200Z 1603/1709 VRB03KT CAVOK TX15/1613Z TN05/1603Z
PROB40
TEMPO 1612/1624 SHRA BKN035CB BKN050
BECMG 1610/1612 18010KT
BECMG 1618/1620 09012KT
BECMG 1622/1624 34008KT
ATIS : +33 4 42 31 15 15



MET'MAP, your aeronautical weather chart ! - Copyright ORBIFLY December 2007 - Disclaimer

ORBIFLY MET'MAP TEAM :

Programming & Development : Alexandra Zaïnal
Concept & original design : Baudouin d'Aumeries
Assistance for programming : Marc-Olivier Méhu
Technical & hardware support : Manuel Goepfert

Contact : metmap@orbifly.com




SOURCES & CREDITS :

   NOAA